createdAt,value
2024-03-05T04:52:23.032Z,31.50
2024-03-05T04:54:50.954Z,30.90
2024-03-05T04:57:18.483Z,30.60
2024-03-05T04:59:47.416Z,30.90
2024-03-05T05:02:16.192Z,29.50
2024-03-05T05:04:44.148Z,32.50
2024-03-05T05:07:12.106Z,30.00
2024-03-05T05:09:41.079Z,28.30
2024-03-05T05:12:08.668Z,27.80
2024-03-05T05:14:38.980Z,28.70
2024-03-05T05:17:06.927Z,29.50
2024-03-05T05:19:34.654Z,29.50
2024-03-05T05:22:02.439Z,31.20
2024-03-05T05:24:30.233Z,33.10
2024-03-05T05:26:57.849Z,35.90
2024-03-05T05:29:36.253Z,40.00
2024-03-05T05:32:08.955Z,42.80
2024-03-05T05:34:36.966Z,43.10
2024-03-05T05:37:06.165Z,40.30
2024-03-05T05:39:34.120Z,36.20
2024-03-05T05:42:01.654Z,35.30
2024-03-05T05:44:30.782Z,34.80
2024-03-05T05:46:58.496Z,32.40
2024-03-05T05:49:26.175Z,34.00
2024-03-05T05:51:54.538Z,30.90
2024-03-05T05:54:23.274Z,32.20
2024-03-05T05:56:51.038Z,32.90
2024-03-05T05:59:20.088Z,31.50
2024-03-05T06:01:47.782Z,32.40
2024-03-05T06:04:16.906Z,30.50
2024-03-05T06:06:44.741Z,32.20
2024-03-05T06:09:12.292Z,32.30
2024-03-05T06:11:40.103Z,33.60
2024-03-05T06:14:08.250Z,32.70
2024-03-05T06:16:36.283Z,31.30
2024-03-05T06:19:03.902Z,30.30
2024-03-05T06:21:31.475Z,33.00
2024-03-05T06:23:58.943Z,33.50
2024-03-05T06:26:26.554Z,34.20
2024-03-05T06:28:54.604Z,32.90
2024-03-05T06:31:22.778Z,30.40
2024-03-05T06:33:51.083Z,31.40
2024-03-05T06:36:20.660Z,30.00
2024-03-05T06:38:48.385Z,32.00
2024-03-05T06:41:16.384Z,32.10
2024-03-05T06:43:44.188Z,30.20
2024-03-05T06:46:14.788Z,32.10
2024-03-05T06:48:49.346Z,33.80
2024-03-05T06:51:33.142Z,34.80
2024-03-05T06:54:19.469Z,33.70
2024-03-05T06:56:47.227Z,34.10
2024-03-05T06:59:15.163Z,34.10
2024-03-05T07:01:43.003Z,32.40
2024-03-05T07:04:10.639Z,32.00
2024-03-05T07:06:38.222Z,30.50
2024-03-05T07:09:05.835Z,32.60
2024-03-05T07:11:34.341Z,31.40
2024-03-05T07:14:01.945Z,30.30
2024-03-05T07:16:31.182Z,30.90
2024-03-05T07:18:58.838Z,29.00
2024-03-05T07:21:26.875Z,30.30
2024-03-05T07:23:55.766Z,28.30
2024-03-05T07:26:24.862Z,28.50
2024-03-05T07:28:53.805Z,30.20
2024-03-05T07:31:21.567Z,28.50
2024-03-05T07:33:52.898Z,29.20
2024-03-05T07:36:24.443Z,28.50
2024-03-05T07:38:52.190Z,27.30
2024-03-05T07:41:29.645Z,26.20
2024-03-05T07:44:02.568Z,29.30
2024-03-05T07:46:31.742Z,26.80
2024-03-05T07:49:00.109Z,27.00
2024-03-05T07:51:40.769Z,25.20
2024-03-05T07:54:12.935Z,25.00
2024-03-05T07:56:41.250Z,26.00
2024-03-05T07:59:09.924Z,26.80
2024-03-05T08:01:38.475Z,25.00
2024-03-05T08:04:07.414Z,25.10
2024-03-05T08:06:35.208Z,25.20
2024-03-05T08:09:05.080Z,24.90
2024-03-05T08:11:33.028Z,24.50
2024-03-05T08:14:00.729Z,24.90
2024-03-05T08:16:28.436Z,23.70
2024-03-05T08:18:55.926Z,25.70
2024-03-05T08:21:23.813Z,25.50
2024-03-05T08:23:55.057Z,23.20
2024-03-05T08:26:24.020Z,22.90
2024-03-05T08:28:51.788Z,22.30
2024-03-05T08:31:19.493Z,22.80
2024-03-05T08:33:47.166Z,23.10
2024-03-05T08:36:14.785Z,23.90
2024-03-05T08:38:42.315Z,24.60
2024-03-05T08:41:09.909Z,23.70
2024-03-05T08:43:37.715Z,23.80
2024-03-05T08:46:05.684Z,23.30
2024-03-05T08:48:33.301Z,20.50
2024-03-05T08:51:00.868Z,21.70
2024-03-05T08:53:30.179Z,22.20
2024-03-05T08:55:58.132Z,22.30
2024-03-05T08:58:25.996Z,23.60
2024-03-05T09:00:54.519Z,22.70
2024-03-05T09:03:22.709Z,21.20
2024-03-05T09:05:50.328Z,23.80
2024-03-05T09:08:18.170Z,22.70
2024-03-05T09:10:48.163Z,19.10
2024-03-05T09:13:15.948Z,22.20
2024-03-05T09:15:44.585Z,19.80
2024-03-05T09:18:15.873Z,22.30
2024-03-05T09:20:44.547Z,21.40
2024-03-05T09:23:12.564Z,19.60
2024-03-05T09:25:43.422Z,21.40
2024-03-05T09:28:12.093Z,20.90
2024-03-05T09:30:40.619Z,20.20
2024-03-05T09:33:11.637Z,20.40
2024-03-05T09:35:40.397Z,22.60
2024-03-05T09:38:08.734Z,19.20
2024-03-05T09:40:36.811Z,21.40
2024-03-05T09:43:05.742Z,22.00
2024-03-05T09:45:37.806Z,21.60
2024-03-05T09:48:06.516Z,20.50
2024-03-05T09:50:34.864Z,23.10
2024-03-05T09:53:02.803Z,22.90
2024-03-05T09:55:32.566Z,22.40
2024-03-05T09:58:00.895Z,21.60
2024-03-05T10:00:29.145Z,22.90
2024-03-05T10:02:56.785Z,21.30
2024-03-05T10:05:24.560Z,20.50
2024-03-05T10:07:52.436Z,23.30
2024-03-05T10:10:20.556Z,22.10
2024-03-05T10:12:48.277Z,19.80
2024-03-05T10:15:37.267Z,23.90
2024-03-05T10:18:05.012Z,22.30
2024-03-05T10:20:34.402Z,21.20
2024-03-05T10:23:04.036Z,22.60
2024-03-05T10:25:34.494Z,24.70
2024-03-05T10:28:03.536Z,23.30
2024-03-05T10:30:36.179Z,22.00
2024-03-05T10:33:05.049Z,22.20
2024-03-05T10:35:36.953Z,23.50
2024-03-05T10:38:10.955Z,22.30
2024-03-05T10:40:39.778Z,23.10
2024-03-05T10:43:08.999Z,21.40
2024-03-05T10:45:39.513Z,21.00
2024-03-05T10:48:12.267Z,22.40
2024-03-05T10:50:41.842Z,23.40
2024-03-05T10:53:10.380Z,22.60
2024-03-05T10:55:39.411Z,23.00
2024-03-05T10:58:12.748Z,23.20
2024-03-05T11:00:41.853Z,23.20
2024-03-05T11:03:11.352Z,23.90
2024-03-05T11:05:45.573Z,22.90
2024-03-05T11:08:16.549Z,23.00
2024-03-05T11:10:44.539Z,21.70
2024-03-05T11:13:12.365Z,23.40
2024-03-05T11:15:40.368Z,22.70
2024-03-05T11:18:28.722Z,22.10
2024-03-05T11:20:56.540Z,21.80
2024-03-05T11:23:36.757Z,22.50
2024-03-05T11:26:06.310Z,21.30
2024-03-05T11:28:37.261Z,22.10
2024-03-05T11:31:20.466Z,21.40
2024-03-05T11:34:10.174Z,21.40
2024-03-05T11:36:38.108Z,21.30
2024-03-05T11:39:21.033Z,22.90
2024-03-05T11:41:49.194Z,21.30
2024-03-05T11:44:32.483Z,22.20
2024-03-05T11:47:00.554Z,21.90
2024-03-05T11:49:28.309Z,21.50
2024-03-05T11:51:55.998Z,20.40
2024-03-05T11:54:25.277Z,21.90
2024-03-05T11:57:00.913Z,20.70
2024-03-05T11:59:38.791Z,21.40
2024-03-05T12:02:11.190Z,20.60
2024-03-05T12:04:43.237Z,21.20
2024-03-05T12:07:14.448Z,20.90
2024-03-05T12:09:42.168Z,20.90
2024-03-05T12:12:15.033Z,21.60
2024-03-05T12:14:56.455Z,20.20
2024-03-05T12:17:25.667Z,24.20
2024-03-05T12:20:06.171Z,23.30
2024-03-05T12:22:34.033Z,22.80
2024-03-05T12:25:01.685Z,21.20
2024-03-05T12:27:29.233Z,21.10
2024-03-05T12:29:57.277Z,21.40
2024-03-05T12:32:25.052Z,19.50
2024-03-05T12:34:52.826Z,19.40
2024-03-05T12:37:20.957Z,20.20
2024-03-05T12:40:01.451Z,18.50
2024-03-05T12:42:29.979Z,19.70
2024-03-05T12:45:09.860Z,19.50
2024-03-05T12:47:38.926Z,19.40
2024-03-05T12:50:10.758Z,19.40
2024-03-05T12:52:38.866Z,20.10
2024-03-05T12:55:11.215Z,19.20
2024-03-05T12:57:39.010Z,18.70
2024-03-05T13:00:11.948Z,18.10
2024-03-05T13:02:40.934Z,17.10
2024-03-05T13:05:09.917Z,17.80
2024-03-05T13:07:38.048Z,15.90
2024-03-05T13:10:11.943Z,16.10
2024-03-05T13:12:40.601Z,15.80
2024-03-05T13:15:09.281Z,16.40
2024-03-05T13:17:37.035Z,14.90
2024-03-05T13:20:05.604Z,14.60
2024-03-05T13:22:33.727Z,16.00
2024-03-05T13:25:01.694Z,16.40
2024-03-05T13:27:29.319Z,18.10
2024-03-05T13:30:05.628Z,18.30
2024-03-05T13:32:41.255Z,16.00
2024-03-05T13:35:09.581Z,18.30
2024-03-05T13:37:37.554Z,15.60
2024-03-05T13:40:06.311Z,16.60
2024-03-05T13:42:37.429Z,15.30
2024-03-05T13:45:11.325Z,15.50
2024-03-05T13:47:40.150Z,16.80
2024-03-05T13:50:12.002Z,17.30
2024-03-05T13:52:49.254Z,17.30
2024-03-05T13:55:17.485Z,20.20
2024-03-05T13:57:46.579Z,19.00
2024-03-05T14:00:21.497Z,22.30
2024-03-05T14:02:49.636Z,20.30
2024-03-05T14:07:45.767Z,18.00
2024-03-05T14:10:13.579Z,18.70
2024-03-05T14:12:41.694Z,16.50
2024-03-05T14:15:22.187Z,17.10
2024-03-05T14:17:51.554Z,16.30
2024-03-05T14:20:25.273Z,16.50
2024-03-05T14:22:55.228Z,18.50
2024-03-05T14:25:23.327Z,18.10
2024-03-05T14:27:51.310Z,17.10
2024-03-05T14:30:19.896Z,18.20
2024-03-05T14:32:48.021Z,18.40
2024-03-05T14:35:15.858Z,16.20
2024-03-05T14:37:44.522Z,18.80
2024-03-05T14:40:16.134Z,18.90
2024-03-05T14:42:45.408Z,19.30
2024-03-05T14:45:15.557Z,19.00
2024-03-05T14:47:50.973Z,18.40
2024-03-05T14:50:18.961Z,18.30
2024-03-05T14:52:46.667Z,18.60
2024-03-05T14:55:14.432Z,17.70
2024-03-05T14:57:42.910Z,17.50
2024-03-05T15:00:14.532Z,18.40
2024-03-05T15:02:43.243Z,19.60
2024-03-05T15:05:14.024Z,19.10
2024-03-05T15:07:42.292Z,19.70
2024-03-05T15:10:13.650Z,19.00
2024-03-05T15:12:43.732Z,17.90
2024-03-05T15:15:12.515Z,17.50
2024-03-05T15:17:40.314Z,19.60
2024-03-05T15:20:12.302Z,19.20
2024-03-05T15:22:43.632Z,20.20
2024-03-05T15:25:14.980Z,19.30
2024-03-05T15:27:45.717Z,18.30
2024-03-05T15:30:16.898Z,22.10
2024-03-05T15:32:48.919Z,21.20
2024-03-05T15:35:18.121Z,20.60
2024-03-05T15:37:46.416Z,20.20
2024-03-05T15:40:19.630Z,21.40
2024-03-05T15:42:51.248Z,20.50
2024-03-05T15:45:19.847Z,18.50
2024-03-05T15:47:47.884Z,19.10
2024-03-05T15:50:19.546Z,19.80
2024-03-05T15:52:51.472Z,20.50
2024-03-05T15:55:20.268Z,19.90
2024-03-05T15:58:04.241Z,20.40
2024-03-05T16:00:39.596Z,19.00
2024-03-05T16:03:14.007Z,18.70
2024-03-05T16:05:55.507Z,19.20
2024-03-05T16:08:31.471Z,18.30
2024-03-05T16:11:00.598Z,19.50
2024-03-05T16:13:30.839Z,19.30
2024-03-05T16:15:58.857Z,19.60
2024-03-05T16:18:27.940Z,20.30
2024-03-05T16:20:55.618Z,21.50
2024-03-05T16:23:23.359Z,19.30
2024-03-05T16:25:52.776Z,18.60
2024-03-05T16:28:21.923Z,19.80
2024-03-05T16:30:49.710Z,19.40
2024-03-05T16:33:17.427Z,19.30
2024-03-05T16:35:45.119Z,19.40
2024-03-05T16:38:15.717Z,20.00
2024-03-05T16:40:43.602Z,22.10
2024-03-05T16:43:13.137Z,21.60
2024-03-05T16:45:41.414Z,21.20
2024-03-05T16:48:10.865Z,20.40
2024-03-05T16:50:40.691Z,19.50
2024-03-05T16:53:10.536Z,20.70
2024-03-05T16:55:38.854Z,21.10
2024-03-05T16:58:12.532Z,21.80
2024-03-05T17:00:48.722Z,22.90
2024-03-05T17:03:18.570Z,21.30
2024-03-05T17:05:52.222Z,22.30
2024-03-05T17:08:24.997Z,23.90
2024-03-05T17:10:55.109Z,24.60
2024-03-05T17:13:24.534Z,23.70
2024-03-05T17:15:57.778Z,24.30
2024-03-05T17:18:28.825Z,23.60
2024-03-05T17:20:57.358Z,24.00
2024-03-05T17:23:26.828Z,24.00
2024-03-05T17:25:57.652Z,24.60
2024-03-05T17:28:28.138Z,25.00
2024-03-05T17:30:57.588Z,25.70
2024-03-05T17:33:25.957Z,24.80
2024-03-05T17:35:56.790Z,24.80
2024-03-05T17:38:27.354Z,26.60
2024-03-05T17:40:57.097Z,26.20
2024-03-05T17:43:25.181Z,25.30
2024-03-05T17:45:52.822Z,22.40
2024-03-05T17:48:20.663Z,23.20
2024-03-05T17:50:49.244Z,22.80
2024-03-05T17:53:16.944Z,23.70
2024-03-05T17:55:46.214Z,22.40
2024-03-05T17:58:14.051Z,21.70
2024-03-05T18:00:48.232Z,22.30
2024-03-05T18:03:16.226Z,22.60
2024-03-05T18:05:46.849Z,20.40
2024-03-05T18:08:16.782Z,21.30
2024-03-05T18:10:47.045Z,20.40
2024-03-05T18:13:17.028Z,22.30
2024-03-05T18:15:46.884Z,21.50
2024-03-05T18:18:15.723Z,21.50
2024-03-05T18:20:44.931Z,21.80
2024-03-05T18:23:13.324Z,23.90
2024-03-05T18:25:42.916Z,23.00
2024-03-05T18:28:10.944Z,22.10
2024-03-05T18:30:39.918Z,21.30
2024-03-05T18:33:09.466Z,23.00
2024-03-05T18:35:39.010Z,23.70
2024-03-05T18:38:20.036Z,23.20
2024-03-05T18:40:54.550Z,22.30
2024-03-05T18:43:22.897Z,22.90
2024-03-05T18:45:51.264Z,22.20
2024-03-05T18:48:19.183Z,22.50
2024-03-05T18:50:48.536Z,21.50
2024-03-05T18:53:17.526Z,22.90
2024-03-05T18:55:45.790Z,21.10
2024-03-05T18:58:13.750Z,21.70
2024-03-05T19:00:43.095Z,22.50
2024-03-05T19:03:10.932Z,21.10
2024-03-05T19:05:38.636Z,19.40
2024-03-05T19:08:07.781Z,21.70
2024-03-05T19:10:35.745Z,21.50
2024-03-05T19:13:03.585Z,21.60
2024-03-05T19:15:31.372Z,23.20
2024-03-05T19:17:59.121Z,20.20
2024-03-05T19:20:27.549Z,20.90
2024-03-05T19:22:55.429Z,22.10
2024-03-05T19:25:23.747Z,22.10
2024-03-05T19:27:52.214Z,22.90
2024-03-05T19:30:20.605Z,22.60
2024-03-05T19:32:48.728Z,22.40
2024-03-05T19:35:18.237Z,24.20
2024-03-05T19:37:48.436Z,22.90
2024-03-05T19:40:18.194Z,23.70
2024-03-05T19:42:48.335Z,22.10
2024-03-05T19:45:16.093Z,22.70
2024-03-05T19:47:43.817Z,23.60
2024-03-05T19:50:15.280Z,23.20
2024-03-05T19:52:43.015Z,23.90
2024-03-05T19:55:10.848Z,22.70
2024-03-05T19:57:38.407Z,23.00
2024-03-05T20:00:13.498Z,20.40
2024-03-05T20:02:41.333Z,19.80
2024-03-05T20:05:09.650Z,32.80
2024-03-05T20:07:37.468Z,23.30
2024-03-05T20:10:06.193Z,22.20
2024-03-05T20:12:34.761Z,24.00
2024-03-05T20:15:09.833Z,24.60
2024-03-05T20:17:39.215Z,25.90
2024-03-05T20:20:09.969Z,22.80
2024-03-05T20:22:39.435Z,21.90
2024-03-05T20:25:08.346Z,24.30
2024-03-05T20:27:36.104Z,21.70
2024-03-05T20:30:13.676Z,25.30
2024-03-05T20:32:45.904Z,22.90
2024-03-05T20:35:17.921Z,24.20
2024-03-05T20:37:47.773Z,24.30
2024-03-05T20:40:15.757Z,23.70
2024-03-05T20:42:44.435Z,23.40
2024-03-05T20:45:13.117Z,24.90
2024-03-05T20:47:41.361Z,24.70
2024-03-05T20:50:09.699Z,23.80
2024-03-05T20:52:37.518Z,22.20
2024-03-05T20:55:05.684Z,22.50
2024-03-05T20:57:37.655Z,23.50
2024-03-05T21:00:19.874Z,23.40
2024-03-05T21:02:49.767Z,20.70
2024-03-05T21:05:19.003Z,22.60
2024-03-05T21:07:46.750Z,22.10
2024-03-05T21:10:15.204Z,21.50
2024-03-05T21:12:42.872Z,21.60
2024-03-05T21:15:11.610Z,20.90
2024-03-05T21:17:40.446Z,19.90
2024-03-05T21:20:09.092Z,20.30
2024-03-05T21:22:38.722Z,19.80
2024-03-05T21:25:07.222Z,22.00
2024-03-05T21:27:36.251Z,19.30
2024-03-05T21:30:07.159Z,21.70
2024-03-05T21:32:34.810Z,20.00
2024-03-05T21:35:02.813Z,20.70
2024-03-05T21:37:30.586Z,21.30
2024-03-05T21:39:59.765Z,21.30
2024-03-05T21:42:27.270Z,20.90
2024-03-05T21:44:55.170Z,21.80
2024-03-05T21:47:22.756Z,19.60
2024-03-05T21:49:50.900Z,19.50
2024-03-05T21:52:19.358Z,19.00
2024-03-05T21:54:46.813Z,18.30
2024-03-05T21:57:14.414Z,18.10
2024-03-05T21:59:42.049Z,18.30
2024-03-05T22:02:09.697Z,18.70
2024-03-05T22:04:37.428Z,18.50
2024-03-05T22:07:05.434Z,17.20
2024-03-05T22:09:33.183Z,18.90
2024-03-05T22:12:03.944Z,18.60
2024-03-05T22:14:32.857Z,19.00
2024-03-05T22:17:00.454Z,16.30
2024-03-05T22:19:28.179Z,19.00
2024-03-05T22:21:55.845Z,20.70
2024-03-05T22:24:23.573Z,19.80
2024-03-05T22:26:51.183Z,17.10
2024-03-05T22:29:18.962Z,18.80
2024-03-05T22:31:46.546Z,19.50
2024-03-05T22:34:14.182Z,19.40
2024-03-05T22:36:41.817Z,19.20
2024-03-05T22:39:09.427Z,20.00
2024-03-05T22:41:37.136Z,18.90
2024-03-05T22:44:04.826Z,18.50
2024-03-05T22:46:32.417Z,18.90
2024-03-05T22:49:00.371Z,17.20
2024-03-05T22:51:28.045Z,19.70
2024-03-05T22:53:55.511Z,17.20
2024-03-05T22:56:23.018Z,20.50
2024-03-05T22:58:50.765Z,19.30
2024-03-05T23:01:18.310Z,18.40
2024-03-05T23:03:45.871Z,18.80
2024-03-05T23:06:18.710Z,20.50
2024-03-05T23:08:49.213Z,20.20
2024-03-05T23:11:16.882Z,20.00
2024-03-05T23:13:44.614Z,19.30
2024-03-05T23:16:12.168Z,16.20
2024-03-05T23:18:39.783Z,16.80
2024-03-05T23:21:10.886Z,17.80
2024-03-05T23:23:39.550Z,18.70
2024-03-05T23:26:07.769Z,17.30
2024-03-05T23:28:35.414Z,16.40
2024-03-05T23:31:02.925Z,18.70
2024-03-05T23:33:30.493Z,17.50
2024-03-05T23:35:58.071Z,16.80
2024-03-05T23:38:25.553Z,15.60
2024-03-05T23:40:55.704Z,18.60
2024-03-05T23:43:23.495Z,17.40
2024-03-05T23:45:51.250Z,16.90
2024-03-05T23:48:18.865Z,18.30
2024-03-05T23:50:46.591Z,18.00
2024-03-05T23:53:16.049Z,14.90
2024-03-05T23:55:44.417Z,17.70
2024-03-05T23:58:11.995Z,17.40
